sensor_id;sensor_type;location;lat;lon;timestamp;pressure;altitude;pressure_sealevel;temperature;humidity
35806;BME280;21925;44.608;11.580;2023-02-12T00:02:06;103377.31;;;3.55;58.92
35806;BME280;21925;44.608;11.580;2023-02-12T00:04:32;103388.72;;;3.57;58.71
35806;BME280;21925;44.608;11.580;2023-02-12T00:06:58;103372.25;;;3.47;58.85
35806;BME280;21925;44.608;11.580;2023-02-12T00:09:27;103379.53;;;3.58;59.09
35806;BME280;21925;44.608;11.580;2023-02-12T00:12:11;103367.19;;;3.50;58.91
35806;BME280;21925;44.608;11.580;2023-02-12T00:14:36;103368.94;;;3.45;58.88
35806;BME280;21925;44.608;11.580;2023-02-12T00:17:21;103377.53;;;3.42;58.91
35806;BME280;21925;44.608;11.580;2023-02-12T00:19:46;103384.63;;;3.43;58.90
35806;BME280;21925;44.608;11.580;2023-02-12T00:23:00;103395.81;;;3.58;58.72
35806;BME280;21925;44.608;11.580;2023-02-12T00:25:26;103388.16;;;3.55;58.61
35806;BME280;21925;44.608;11.580;2023-02-12T00:27:51;103383.56;;;3.21;60.25
35806;BME280;21925;44.608;11.580;2023-02-12T00:30:17;103383.53;;;2.87;60.84
35806;BME280;21925;44.608;11.580;2023-02-12T00:32:44;103385.06;;;3.17;60.34
35806;BME280;21925;44.608;11.580;2023-02-12T00:35:10;103388.88;;;3.39;59.76
35806;BME280;21925;44.608;11.580;2023-02-12T00:37:37;103383.47;;;3.39;59.47
35806;BME280;21925;44.608;11.580;2023-02-12T00:40:04;103391.69;;;3.44;59.02
35806;BME280;21925;44.608;11.580;2023-02-12T00:42:30;103389.69;;;3.39;59.05
35806;BME280;21925;44.608;11.580;2023-02-12T00:44:56;103381.66;;;3.33;59.12
35806;BME280;21925;44.608;11.580;2023-02-12T00:47:21;103380.38;;;3.24;58.95
35806;BME280;21925;44.608;11.580;2023-02-12T00:49:48;103379.66;;;3.17;59.15
35806;BME280;21925;44.608;11.580;2023-02-12T00:52:14;103381.78;;;3.15;59.18
35806;BME280;21925;44.608;11.580;2023-02-12T00:54:40;103367.03;;;3.00;59.31
35806;BME280;21925;44.608;11.580;2023-02-12T00:57:05;103368.34;;;3.09;59.17
35806;BME280;21925;44.608;11.580;2023-02-12T00:59:31;103376.34;;;3.15;59.30
35806;BME280;21925;44.608;11.580;2023-02-12T01:01:56;103382.50;;;3.11;59.37
35806;BME280;21925;44.608;11.580;2023-02-12T01:04:40;103392.50;;;3.10;59.24
35806;BME280;21925;44.608;11.580;2023-02-12T01:07:06;103397.91;;;3.10;59.06
35806;BME280;21925;44.608;11.580;2023-02-12T01:09:32;103389.53;;;3.12;59.21
35806;BME280;21925;44.608;11.580;2023-02-12T01:11:58;103380.25;;;3.08;58.89
35806;BME280;21925;44.608;11.580;2023-02-12T01:14:42;103387.06;;;3.10;59.04
35806;BME280;21925;44.608;11.580;2023-02-12T01:17:08;103391.56;;;3.16;58.91
35806;BME280;21925;44.608;11.580;2023-02-12T01:19:34;103374.84;;;3.19;58.72
35806;BME280;21925;44.608;11.580;2023-02-12T01:21:59;103380.97;;;3.26;58.75
35806;BME280;21925;44.608;11.580;2023-02-12T01:24:28;103377.19;;;3.27;58.68
35806;BME280;21925;44.608;11.580;2023-02-12T01:26:53;103372.22;;;3.24;58.72
35806;BME280;21925;44.608;11.580;2023-02-12T01:29:37;103362.09;;;3.08;58.94
35806;BME280;21925;44.608;11.580;2023-02-12T01:32:04;103363.28;;;3.12;59.01
35806;BME280;21925;44.608;11.580;2023-02-12T01:34:30;103344.41;;;3.06;59.04
35806;BME280;21925;44.608;11.580;2023-02-12T01:36:55;103357.63;;;3.13;58.99
35806;BME280;21925;44.608;11.580;2023-02-12T01:39:21;103344.66;;;3.04;58.92
35806;BME280;21925;44.608;11.580;2023-02-12T01:41:47;103346.88;;;3.07;58.93
35806;BME280;21925;44.608;11.580;2023-02-12T01:44:19;103357.00;;;3.12;59.01
35806;BME280;21925;44.608;11.580;2023-02-12T01:46:49;103352.19;;;3.02;59.14
35806;BME280;21925;44.608;11.580;2023-02-12T01:49:29;103357.25;;;2.99;59.30
35806;BME280;21925;44.608;11.580;2023-02-12T01:52:19;103359.16;;;3.10;59.39
35806;BME280;21925;44.608;11.580;2023-02-12T01:54:47;103342.75;;;3.16;59.14
35806;BME280;21925;44.608;11.580;2023-02-12T01:57:14;103357.69;;;2.73;60.64
35806;BME280;21925;44.608;11.580;2023-02-12T01:59:42;103342.66;;;3.00;59.92
35806;BME280;21925;44.608;11.580;2023-02-12T02:02:09;103346.31;;;2.94;59.43
35806;BME280;21925;44.608;11.580;2023-02-12T02:05:02;103345.13;;;3.01;59.06
35806;BME280;21925;44.608;11.580;2023-02-12T02:07:29;103347.81;;;3.01;59.48
35806;BME280;21925;44.608;11.580;2023-02-12T02:09:56;103345.66;;;2.57;61.54
35806;BME280;21925;44.608;11.580;2023-02-12T02:12:23;103360.56;;;2.89;60.45
35806;BME280;21925;44.608;11.580;2023-02-12T02:15:07;103345.81;;;2.97;59.68
35806;BME280;21925;44.608;11.580;2023-02-12T02:17:50;103346.41;;;2.99;59.81
35806;BME280;21925;44.608;11.580;2023-02-12T02:24:50;103336.00;;;2.73;61.61
35806;BME280;21925;44.608;11.580;2023-02-12T02:27:43;103336.44;;;2.18;63.38
35806;BME280;21925;44.608;11.580;2023-02-12T02:33:18;103335.06;;;1.97;65.08
35806;BME280;21925;44.608;11.580;2023-02-12T02:35:54;103324.75;;;1.88;64.51
35806;BME280;21925;44.608;11.580;2023-02-12T02:45:23;103322.22;;;1.57;65.14
35806;BME280;21925;44.608;11.580;2023-02-12T02:48:04;103299.19;;;2.02;65.06
35806;BME280;21925;44.608;11.580;2023-02-12T02:50:34;103304.75;;;1.89;67.15
35806;BME280;21925;44.608;11.580;2023-02-12T02:53:01;103307.41;;;2.25;65.41
35806;BME280;21925;44.608;11.580;2023-02-12T02:55:32;103289.72;;;2.22;62.77
35806;BME280;21925;44.608;11.580;2023-02-12T02:58:08;103303.09;;;2.46;62.32
35806;BME280;21925;44.608;11.580;2023-02-12T03:00:42;103297.59;;;2.53;62.81
35806;BME280;21925;44.608;11.580;2023-02-12T03:06:12;103300.59;;;2.34;63.45
35806;BME280;21925;44.608;11.580;2023-02-12T03:08:50;103312.50;;;2.33;67.89
35806;BME280;21925;44.608;11.580;2023-02-12T03:11:26;103297.97;;;1.98;67.22
35806;BME280;21925;44.608;11.580;2023-02-12T03:14:07;103312.97;;;2.12;68.18
35806;BME280;21925;44.608;11.580;2023-02-12T03:17:00;103315.19;;;2.33;68.73
35806;BME280;21925;44.608;11.580;2023-02-12T03:49:20;103301.19;;;2.35;64.06
35806;BME280;21925;44.608;11.580;2023-02-12T03:51:48;103273.63;;;2.27;62.83
35806;BME280;21925;44.608;11.580;2023-02-12T03:54:17;103296.91;;;2.17;63.97
35806;BME280;21925;44.608;11.580;2023-02-12T03:57:02;103293.13;;;1.88;64.47
35806;BME280;21925;44.608;11.580;2023-02-12T03:59:30;103278.97;;;1.57;66.92
35806;BME280;21925;44.608;11.580;2023-02-12T04:01:58;103297.31;;;1.37;69.36
35806;BME280;21925;44.608;11.580;2023-02-12T04:04:24;103266.88;;;1.89;68.12
35806;BME280;21925;44.608;11.580;2023-02-12T04:06:52;103274.53;;;2.10;65.14
35806;BME280;21925;44.608;11.580;2023-02-12T04:09:18;103283.84;;;2.25;63.12
35806;BME280;21925;44.608;11.580;2023-02-12T04:11:53;103292.25;;;2.35;62.12
35806;BME280;21925;44.608;11.580;2023-02-12T04:17:02;103267.09;;;2.05;64.71
35806;BME280;21925;44.608;11.580;2023-02-12T04:19:46;103272.75;;;1.86;67.71
35806;BME280;21925;44.608;11.580;2023-02-12T04:22:20;103282.44;;;1.93;68.52
35806;BME280;21925;44.608;11.580;2023-02-12T04:27:25;103269.63;;;2.30;64.91
35806;BME280;21925;44.608;11.580;2023-02-12T04:29:57;103277.19;;;2.50;62.88
35806;BME280;21925;44.608;11.580;2023-02-12T04:32:32;103300.88;;;2.55;62.19
35806;BME280;21925;44.608;11.580;2023-02-12T04:35:07;103303.72;;;2.60;61.29
35806;BME280;21925;44.608;11.580;2023-02-12T04:37:40;103285.66;;;2.42;61.26
35806;BME280;21925;44.608;11.580;2023-02-12T04:40:12;103280.47;;;2.41;60.65
35806;BME280;21925;44.608;11.580;2023-02-12T04:42:46;103297.31;;;2.43;60.66
35806;BME280;21925;44.608;11.580;2023-02-12T04:45:17;103299.78;;;2.44;60.75
35806;BME280;21925;44.608;11.580;2023-02-12T04:47:45;103303.47;;;2.61;60.50
35806;BME280;21925;44.608;11.580;2023-02-12T04:50:11;103303.56;;;2.55;60.36
35806;BME280;21925;44.608;11.580;2023-02-12T04:52:37;103296.59;;;2.36;60.25
35806;BME280;21925;44.608;11.580;2023-02-12T04:55:02;103307.44;;;2.36;60.64
35806;BME280;21925;44.608;11.580;2023-02-12T04:57:28;103308.25;;;2.36;60.45
35806;BME280;21925;44.608;11.580;2023-02-12T04:59:53;103301.81;;;2.49;60.49
35806;BME280;21925;44.608;11.580;2023-02-12T05:02:19;103297.09;;;2.44;59.87
35806;BME280;21925;44.608;11.580;2023-02-12T05:04:44;103304.22;;;2.28;59.68
35806;BME280;21925;44.608;11.580;2023-02-12T05:07:11;103313.25;;;2.22;59.96
35806;BME280;21925;44.608;11.580;2023-02-12T05:09:36;103321.50;;;2.27;60.09
35806;BME280;21925;44.608;11.580;2023-02-12T05:12:02;103306.34;;;2.26;60.06
35806;BME280;21925;44.608;11.580;2023-02-12T05:14:27;103302.94;;;2.30;60.13
35806;BME280;21925;44.608;11.580;2023-02-12T05:16:53;103292.91;;;2.19;59.79
35806;BME280;21925;44.608;11.580;2023-02-12T05:19:19;103314.50;;;2.37;59.86
35806;BME280;21925;44.608;11.580;2023-02-12T05:21:45;103300.31;;;2.24;59.84
35806;BME280;21925;44.608;11.580;2023-02-12T05:24:10;103300.06;;;2.14;59.99
35806;BME280;21925;44.608;11.580;2023-02-12T05:26:36;103304.13;;;2.05;60.26
35806;BME280;21925;44.608;11.580;2023-02-12T05:29:02;103290.91;;;1.97;60.34
35806;BME280;21925;44.608;11.580;2023-02-12T05:31:27;103298.44;;;1.95;60.70
35806;BME280;21925;44.608;11.580;2023-02-12T05:33:53;103271.69;;;1.87;61.23
35806;BME280;21925;44.608;11.580;2023-02-12T05:36:20;103276.09;;;1.99;61.83
35806;BME280;21925;44.608;11.580;2023-02-12T05:38:47;103278.59;;;2.01;62.99
35806;BME280;21925;44.608;11.580;2023-02-12T05:41:21;103278.97;;;2.04;61.50
35806;BME280;21925;44.608;11.580;2023-02-12T05:43:48;103278.69;;;2.24;61.83
35806;BME280;21925;44.608;11.580;2023-02-12T05:46:14;103273.00;;;2.14;60.77
35806;BME280;21925;44.608;11.580;2023-02-12T05:48:40;103272.31;;;1.89;62.87
35806;BME280;21925;44.608;11.580;2023-02-12T05:51:11;103287.84;;;2.23;62.87
35806;BME280;21925;44.608;11.580;2023-02-12T05:53:38;103293.59;;;2.15;62.89
35806;BME280;21925;44.608;11.580;2023-02-12T05:56:19;103282.41;;;2.11;61.58
35806;BME280;21925;44.608;11.580;2023-02-12T05:58:47;103272.13;;;2.02;61.33
35806;BME280;21925;44.608;11.580;2023-02-12T06:01:16;103272.22;;;1.95;60.74
35806;BME280;21925;44.608;11.580;2023-02-12T06:03:42;103288.81;;;1.99;60.85
35806;BME280;21925;44.608;11.580;2023-02-12T06:06:08;103299.66;;;1.99;61.05
35806;BME280;21925;44.608;11.580;2023-02-12T06:08:34;103293.31;;;2.05;61.07
35806;BME280;21925;44.608;11.580;2023-02-12T06:11:05;103280.69;;;1.99;61.40
35806;BME280;21925;44.608;11.580;2023-02-12T06:13:31;103296.38;;;2.08;60.87
35806;BME280;21925;44.608;11.580;2023-02-12T06:15:57;103304.13;;;2.05;60.84
35806;BME280;21925;44.608;11.580;2023-02-12T06:18:23;103307.88;;;2.04;60.55
35806;BME280;21925;44.608;11.580;2023-02-12T06:20:49;103314.16;;;2.04;60.58
35806;BME280;21925;44.608;11.580;2023-02-12T06:23:15;103317.06;;;2.03;60.57
35806;BME280;21925;44.608;11.580;2023-02-12T06:25:41;103331.66;;;2.02;60.53
35806;BME280;21925;44.608;11.580;2023-02-12T06:28:07;103348.28;;;2.05;60.88
35806;BME280;21925;44.608;11.580;2023-02-12T06:30:33;103326.41;;;1.89;61.27
35806;BME280;21925;44.608;11.580;2023-02-12T06:32:59;103337.66;;;2.04;61.94
35806;BME280;21925;44.608;11.580;2023-02-12T06:35:25;103361.38;;;2.20;61.43
35806;BME280;21925;44.608;11.580;2023-02-12T06:37:51;103338.06;;;2.19;60.62
35806;BME280;21925;44.608;11.580;2023-02-12T06:40:17;103353.31;;;2.31;61.54
35806;BME280;21925;44.608;11.580;2023-02-12T06:42:42;103328.22;;;2.24;60.24
35806;BME280;21925;44.608;11.580;2023-02-12T06:45:08;103337.63;;;2.22;59.83
35806;BME280;21925;44.608;11.580;2023-02-12T06:47:34;103360.09;;;2.22;60.58
35806;BME280;21925;44.608;11.580;2023-02-12T06:49:59;103380.00;;;2.28;60.52
35806;BME280;21925;44.608;11.580;2023-02-12T06:52:26;103354.31;;;2.19;61.07
35806;BME280;21925;44.608;11.580;2023-02-12T06:54:52;103372.56;;;2.23;61.13
35806;BME280;21925;44.608;11.580;2023-02-12T06:57:17;103384.97;;;2.31;63.90
35806;BME280;21925;44.608;11.580;2023-02-12T06:59:43;103388.09;;;2.45;64.84
35806;BME280;21925;44.608;11.580;2023-02-12T07:02:10;103379.06;;;2.63;64.57
35806;BME280;21925;44.608;11.580;2023-02-12T07:04:38;103388.78;;;2.82;64.03
35806;BME280;21925;44.608;11.580;2023-02-12T07:07:05;103372.06;;;2.73;64.13
35806;BME280;21925;44.608;11.580;2023-02-12T07:09:31;103374.28;;;2.76;64.69
35806;BME280;21925;44.608;11.580;2023-02-12T07:11:57;103400.69;;;2.81;65.99
35806;BME280;21925;44.608;11.580;2023-02-12T07:14:23;103402.38;;;2.93;65.95
35806;BME280;21925;44.608;11.580;2023-02-12T07:16:50;103394.63;;;3.08;66.25
35806;BME280;21925;44.608;11.580;2023-02-12T07:19:16;103395.91;;;3.06;67.39
35806;BME280;21925;44.608;11.580;2023-02-12T07:21:43;103379.53;;;3.12;67.40
35806;BME280;21925;44.608;11.580;2023-02-12T07:24:10;103377.28;;;3.20;68.19
35806;BME280;21925;44.608;11.580;2023-02-12T07:26:38;103370.97;;;3.26;68.09
35806;BME280;21925;44.608;11.580;2023-02-12T07:29:04;103374.72;;;3.25;67.75
35806;BME280;21925;44.608;11.580;2023-02-12T07:31:30;103389.00;;;3.21;67.77
35806;BME280;21925;44.608;11.580;2023-02-12T07:33:57;103381.56;;;3.16;68.25
35806;BME280;21925;44.608;11.580;2023-02-12T07:36:24;103381.19;;;3.59;68.82
35806;BME280;21925;44.608;11.580;2023-02-12T07:38:50;103381.22;;;3.36;68.38
35806;BME280;21925;44.608;11.580;2023-02-12T07:41:17;103373.41;;;3.51;71.43
35806;BME280;21925;44.608;11.580;2023-02-12T07:43:44;103371.53;;;3.63;76.15
35806;BME280;21925;44.608;11.580;2023-02-12T07:46:19;103374.06;;;3.81;76.18
35806;BME280;21925;44.608;11.580;2023-02-12T07:48:46;103363.16;;;4.15;74.25
35806;BME280;21925;44.608;11.580;2023-02-12T07:51:14;103381.63;;;4.57;71.57
35806;BME280;21925;44.608;11.580;2023-02-12T07:53:41;103377.88;;;4.91;72.18
35806;BME280;21925;44.608;11.580;2023-02-12T07:56:12;103377.47;;;5.15;71.24
35806;BME280;21925;44.608;11.580;2023-02-12T07:58:39;103398.59;;;5.25;68.18
35806;BME280;21925;44.608;11.580;2023-02-12T08:01:21;103397.41;;;5.21;68.17
35806;BME280;21925;44.608;11.580;2023-02-12T08:03:48;103399.97;;;5.27;67.97
35806;BME280;21925;44.608;11.580;2023-02-12T08:06:17;103411.16;;;5.47;68.03
35806;BME280;21925;44.608;11.580;2023-02-12T08:08:44;103409.91;;;5.87;66.96
35806;BME280;21925;44.608;11.580;2023-02-12T08:11:11;103402.09;;;5.96;66.59
35806;BME280;21925;44.608;11.580;2023-02-12T08:13:37;103410.41;;;6.06;65.37
35806;BME280;21925;44.608;11.580;2023-02-12T08:16:11;103425.16;;;6.31;63.02
35806;BME280;21925;44.608;11.580;2023-02-12T08:18:37;103405.91;;;6.64;62.77
35806;BME280;21925;44.608;11.580;2023-02-12T08:21:26;103426.50;;;7.34;62.49
35806;BME280;21925;44.608;11.580;2023-02-12T08:23:54;103428.66;;;7.68;60.58
35806;BME280;21925;44.608;11.580;2023-02-12T08:28:53;103435.81;;;8.15;57.59
35806;BME280;21925;44.608;11.580;2023-02-12T08:31:22;103425.47;;;8.27;56.50
35806;BME280;21925;44.608;11.580;2023-02-12T08:33:50;103424.69;;;8.42;54.50
35806;BME280;21925;44.608;11.580;2023-02-12T08:36:19;103403.97;;;8.56;54.75
35806;BME280;21925;44.608;11.580;2023-02-12T08:38:45;103411.66;;;8.64;54.69
35806;BME280;21925;44.608;11.580;2023-02-12T08:41:16;103414.97;;;8.85;55.41
35806;BME280;21925;44.608;11.580;2023-02-12T08:43:42;103422.41;;;9.00;54.89
35806;BME280;21925;44.608;11.580;2023-02-12T08:46:15;103409.00;;;9.18;55.45
35806;BME280;21925;44.608;11.580;2023-02-12T08:48:41;103413.91;;;9.41;56.50
35806;BME280;21925;44.608;11.580;2023-02-12T08:53:33;103414.13;;;9.69;57.13
35806;BME280;21925;44.608;11.580;2023-02-12T08:55:59;103405.94;;;9.64;57.09
35806;BME280;21925;44.608;11.580;2023-02-12T08:58:25;103414.66;;;9.81;56.68
35806;BME280;21925;44.608;11.580;2023-02-12T09:00:50;103417.66;;;9.90;56.83
35806;BME280;21925;44.608;11.580;2023-02-12T09:03:16;103398.56;;;9.60;55.81
35806;BME280;21925;44.608;11.580;2023-02-12T09:05:41;103406.72;;;9.80;55.55
35806;BME280;21925;44.608;11.580;2023-02-12T09:08:07;103403.41;;;9.98;56.33
35806;BME280;21925;44.608;11.580;2023-02-12T09:10:37;103397.38;;;10.01;55.69
35806;BME280;21925;44.608;11.580;2023-02-12T09:13:03;103400.66;;;9.93;55.25
35806;BME280;21925;44.608;11.580;2023-02-12T09:15:28;103403.97;;;10.00;55.02
35806;BME280;21925;44.608;11.580;2023-02-12T09:17:54;103394.31;;;10.12;54.69
35806;BME280;21925;44.608;11.580;2023-02-12T09:20:19;103393.88;;;10.48;54.13
35806;BME280;21925;44.608;11.580;2023-02-12T09:22:45;103417.13;;;10.56;53.99
35806;BME280;21925;44.608;11.580;2023-02-12T09:25:10;103415.69;;;10.73;53.36
35806;BME280;21925;44.608;11.580;2023-02-12T09:27:36;103413.88;;;10.92;53.33
35806;BME280;21925;44.608;11.580;2023-02-12T09:30:02;103418.78;;;11.00;52.44
35806;BME280;21925;44.608;11.580;2023-02-12T09:32:28;103424.69;;;11.17;52.10
35806;BME280;21925;44.608;11.580;2023-02-12T09:34:54;103422.00;;;11.07;51.79
35806;BME280;21925;44.608;11.580;2023-02-12T09:37:20;103422.69;;;11.27;52.17
35806;BME280;21925;44.608;11.580;2023-02-12T09:39:45;103434.84;;;11.50;51.93
35806;BME280;21925;44.608;11.580;2023-02-12T09:42:23;103437.88;;;11.53;51.66
35806;BME280;21925;44.608;11.580;2023-02-12T09:45:03;103451.28;;;11.60;51.12
35806;BME280;21925;44.608;11.580;2023-02-12T09:47:37;103454.34;;;11.82;51.04
35806;BME280;21925;44.608;11.580;2023-02-12T09:50:23;103449.41;;;11.84;51.19
35806;BME280;21925;44.608;11.580;2023-02-12T09:52:53;103446.25;;;11.67;51.31
35806;BME280;21925;44.608;11.580;2023-02-12T09:55:26;103435.78;;;11.97;51.00
35806;BME280;21925;44.608;11.580;2023-02-12T09:57:53;103436.44;;;11.89;50.99
35806;BME280;21925;44.608;11.580;2023-02-12T10:00:29;103436.34;;;11.94;51.42
35806;BME280;21925;44.608;11.580;2023-02-12T10:03:00;103440.91;;;12.03;51.29
35806;BME280;21925;44.608;11.580;2023-02-12T10:10:52;103441.75;;;12.27;51.44
35806;BME280;21925;44.608;11.580;2023-02-12T10:13:46;103457.63;;;12.35;51.26
35806;BME280;21925;44.608;11.580;2023-02-12T10:24:04;103443.59;;;12.32;50.39
35806;BME280;21925;44.608;11.580;2023-02-12T10:26:41;103452.38;;;12.57;49.98
35806;BME280;21925;44.608;11.580;2023-02-12T10:29:16;103448.22;;;12.78;50.26
35806;BME280;21925;44.608;11.580;2023-02-12T10:31:47;103468.81;;;13.04;49.62
35806;BME280;21925;44.608;11.580;2023-02-12T10:34:19;103466.25;;;13.26;48.73
35806;BME280;21925;44.608;11.580;2023-02-12T10:36:47;103471.31;;;14.01;47.25
35806;BME280;21925;44.608;11.580;2023-02-12T10:39:18;103460.59;;;13.67;47.66
35806;BME280;21925;44.608;11.580;2023-02-12T10:44:13;103450.94;;;13.52;48.38
35806;BME280;21925;44.608;11.580;2023-02-12T10:46:40;103453.66;;;13.70;49.47
35806;BME280;21925;44.608;11.580;2023-02-12T10:49:07;103453.44;;;14.12;49.45
35806;BME280;21925;44.608;11.580;2023-02-12T10:54:43;103446.69;;;14.04;48.57
35806;BME280;21925;44.608;11.580;2023-02-12T10:59:39;103440.78;;;14.11;49.06
35806;BME280;21925;44.608;11.580;2023-02-12T11:04:49;103457.00;;;14.66;47.61
35806;BME280;21925;44.608;11.580;2023-02-12T11:07:15;103452.81;;;14.55;47.54
35806;BME280;21925;44.608;11.580;2023-02-12T11:09:43;103445.44;;;14.64;47.83
35806;BME280;21925;44.608;11.580;2023-02-12T11:12:22;103437.50;;;15.19;47.67
35806;BME280;21925;44.608;11.580;2023-02-12T11:14:52;103446.88;;;14.75;47.21
35806;BME280;21925;44.608;11.580;2023-02-12T11:17:39;103443.41;;;14.56;46.81
35806;BME280;21925;44.608;11.580;2023-02-12T11:22:58;103428.59;;;15.22;45.77
35806;BME280;21925;44.608;11.580;2023-02-12T11:25:31;103431.16;;;15.19;46.36
35806;BME280;21925;44.608;11.580;2023-02-12T11:30:24;103424.09;;;15.48;45.59
35806;BME280;21925;44.608;11.580;2023-02-12T11:32:50;103407.09;;;15.63;46.86
35806;BME280;21925;44.608;11.580;2023-02-12T11:35:21;103421.97;;;16.45;46.70
35806;BME280;21925;44.608;11.580;2023-02-12T11:37:57;103422.25;;;16.35;44.53
35806;BME280;21925;44.608;11.580;2023-02-12T11:40:30;103437.78;;;17.71;48.95
35806;BME280;21925;44.608;11.580;2023-02-12T11:43:02;103435.84;;;17.71;49.59
35806;BME280;21925;44.608;11.580;2023-02-12T11:45:43;103438.22;;;17.90;45.66
35806;BME280;21925;44.608;11.580;2023-02-12T11:48:21;103439.47;;;17.47;48.50
35806;BME280;21925;44.608;11.580;2023-02-12T11:50:50;103437.06;;;17.28;44.79
35806;BME280;21925;44.608;11.580;2023-02-12T11:53:30;103444.88;;;17.35;46.29
35806;BME280;21925;44.608;11.580;2023-02-12T11:55:59;103448.75;;;18.22;49.81
35806;BME280;21925;44.608;11.580;2023-02-12T11:58:27;103431.16;;;17.38;43.34
35806;BME280;21925;44.608;11.580;2023-02-12T12:03:41;103433.09;;;17.46;47.53
35806;BME280;21925;44.608;11.580;2023-02-12T12:09:12;103436.34;;;18.11;46.11
35806;BME280;21925;44.608;11.580;2023-02-12T12:14:14;103418.50;;;19.51;49.22
35806;BME280;21925;44.608;11.580;2023-02-12T12:19:58;103417.19;;;19.36;47.05
35806;BME280;21925;44.608;11.580;2023-02-12T12:22:49;103410.91;;;18.38;45.33
35806;BME280;21925;44.608;11.580;2023-02-12T12:25:34;103425.94;;;18.65;49.74
35806;BME280;21925;44.608;11.580;2023-02-12T12:33:42;103409.41;;;18.40;42.89
35806;BME280;21925;44.608;11.580;2023-02-12T12:50:18;103393.88;;;19.09;50.54
35806;BME280;21925;44.608;11.580;2023-02-12T13:01:09;103402.16;;;20.29;51.37
35806;BME280;21925;44.608;11.580;2023-02-12T13:09:28;103398.22;;;18.20;41.47
35806;BME280;21925;44.608;11.580;2023-02-12T13:17:33;103400.28;;;18.40;44.00
35806;BME280;21925;44.608;11.580;2023-02-12T13:22:59;103377.56;;;18.38;42.37
35806;BME280;21925;44.608;11.580;2023-02-12T13:28:26;103398.69;;;19.00;49.40
35806;BME280;21925;44.608;11.580;2023-02-12T13:30:54;103384.53;;;19.13;47.65
35806;BME280;21925;44.608;11.580;2023-02-12T13:33:38;103387.00;;;19.06;47.66
35806;BME280;21925;44.608;11.580;2023-02-12T13:36:07;103393.38;;;18.45;43.34
35806;BME280;21925;44.608;11.580;2023-02-12T13:38:38;103390.75;;;18.12;44.86
35806;BME280;21925;44.608;11.580;2023-02-12T13:41:08;103388.25;;;17.44;44.54
35806;BME280;21925;44.608;11.580;2023-02-12T13:46:14;103392.31;;;17.38;43.63
35806;BME280;21925;44.608;11.580;2023-02-12T13:48:49;103401.06;;;17.65;45.48
35806;BME280;21925;44.608;11.580;2023-02-12T13:54:17;103399.81;;;17.46;47.65
35806;BME280;21925;44.608;11.580;2023-02-12T13:56:54;103398.22;;;17.11;46.52
35806;BME280;21925;44.608;11.580;2023-02-12T14:02:09;103402.19;;;17.73;49.43
35806;BME280;21925;44.608;11.580;2023-02-12T14:07:18;103396.50;;;17.61;48.93
35806;BME280;21925;44.608;11.580;2023-02-12T14:14:45;103385.13;;;17.91;48.35
35806;BME280;21925;44.608;11.580;2023-02-12T14:38:06;103384.19;;;16.57;49.55
35806;BME280;21925;44.608;11.580;2023-02-12T14:40:49;103388.75;;;16.06;47.37
35806;BME280;21925;44.608;11.580;2023-02-12T14:43:35;103395.66;;;16.25;47.76
35806;BME280;21925;44.608;11.580;2023-02-12T14:49:02;103372.94;;;16.71;49.28
35806;BME280;21925;44.608;11.580;2023-02-12T14:51:54;103398.38;;;16.08;47.50
35806;BME280;21925;44.608;11.580;2023-02-12T14:57:09;103398.69;;;16.07;49.76
35806;BME280;21925;44.608;11.580;2023-02-12T14:59:40;103401.25;;;15.65;47.35
35806;BME280;21925;44.608;11.580;2023-02-12T15:02:13;103407.38;;;15.84;48.43
35806;BME280;21925;44.608;11.580;2023-02-12T15:04:44;103407.88;;;15.86;48.76
35806;BME280;21925;44.608;11.580;2023-02-12T15:07:13;103393.13;;;16.46;50.63
35806;BME280;21925;44.608;11.580;2023-02-12T15:09:56;103402.28;;;16.16;48.05
35806;BME280;21925;44.608;11.580;2023-02-12T15:12:34;103404.16;;;16.29;49.24
35806;BME280;21925;44.608;11.580;2023-02-12T15:15:06;103417.91;;;16.59;49.01
35806;BME280;21925;44.608;11.580;2023-02-12T15:17:39;103423.09;;;16.52;48.97
35806;BME280;21925;44.608;11.580;2023-02-12T15:20:28;103424.94;;;16.74;48.77
35806;BME280;21925;44.608;11.580;2023-02-12T15:22:56;103431.41;;;16.44;48.11
35806;BME280;21925;44.608;11.580;2023-02-12T15:27:57;103428.13;;;16.42;49.86
35806;BME280;21925;44.608;11.580;2023-02-12T15:30:30;103422.25;;;16.35;50.19
35806;BME280;21925;44.608;11.580;2023-02-12T15:33:04;103402.69;;;15.93;48.96
35806;BME280;21925;44.608;11.580;2023-02-12T15:35:36;103420.16;;;16.40;50.50
35806;BME280;21925;44.608;11.580;2023-02-12T15:38:03;103422.47;;;16.47;50.80
35806;BME280;21925;44.608;11.580;2023-02-12T15:40:32;103417.56;;;16.44;49.86
35806;BME280;21925;44.608;11.580;2023-02-12T15:43:04;103428.00;;;16.55;50.77
35806;BME280;21925;44.608;11.580;2023-02-12T15:45:32;103423.25;;;16.47;50.88
35806;BME280;21925;44.608;11.580;2023-02-12T15:48:12;103424.72;;;16.45;51.35
35806;BME280;21925;44.608;11.580;2023-02-12T15:53:13;103431.47;;;16.22;51.20
35806;BME280;21925;44.608;11.580;2023-02-12T15:55:42;103429.91;;;15.99;51.69
35806;BME280;21925;44.608;11.580;2023-02-12T15:58:21;103430.13;;;15.50;51.83
35806;BME280;21925;44.608;11.580;2023-02-12T16:00:47;103428.34;;;15.54;52.71
35806;BME280;21925;44.608;11.580;2023-02-12T16:05:47;103422.72;;;15.02;51.98
35806;BME280;21925;44.608;11.580;2023-02-12T16:08:15;103442.31;;;15.27;53.25
35806;BME280;21925;44.608;11.580;2023-02-12T16:10:43;103441.75;;;15.04;52.91
35806;BME280;21925;44.608;11.580;2023-02-12T16:13:33;103446.88;;;14.75;52.53
35806;BME280;21925;44.608;11.580;2023-02-12T16:16:26;103443.59;;;14.73;53.18